This is the latest recevied weather packets stored in our database for station/object DL5ARK. If no packets are shown the sender has not sent any weather packets the latest 10 day(s).
| Time | Temp. | Humidity | Pressure | Rain* | Wind** | Luminosity | Snow |
|---|---|---|---|---|---|---|---|
| 1777977408 | 21.67° C | 52% | 994.8 hPa | 0 mm | - | - | - |
| 1777977227 | 21.67° C | 52% | 994.8 hPa | 0 mm | - | - | - |
| 1777977047 | 21.67° C | 53% | 994.8 hPa | 0 mm | - | - | - |
| 1777976687 | 21.11° C | 53% | 995.1 hPa | 0 mm | - | - | - |
| 1777976507 | 21.11° C | 52% | 995.1 hPa | 0 mm | - | - | - |
| 1777976328 | 21.67° C | 54% | 995.1 hPa | 0 mm | - | - | - |
| 1777976147 | 21.11° C | 52% | 995.3 hPa | 0 mm | - | - | - |
| 1777975787 | 20.56° C | 55% | 995.3 hPa | 0 mm | - | - | - |
| 1777975607 | 20.56° C | 53% | 995.3 hPa | 0 mm | - | - | - |
| 1777975428 | 21.67° C | 61% | 995.1 hPa | 0 mm | - | - | - |
| 1777975247 | 21.11° C | 60% | 995.3 hPa | 0 mm | - | - | - |
| 1777974888 | 21.11° C | 64% | 995.6 hPa | 0 mm | - | - | - |
| 1777974707 | 20.56° C | 65% | 995.3 hPa | 0 mm | - | - | - |
| 1777974527 | 20.56° C | 66% | 995.3 hPa | 0 mm | - | - | - |
| 1777974347 | 20° C | 66% | 995.3 hPa | 0 mm | - | - | - |
| 1777974168 | 19.44° C | 67% | 995.3 hPa | 0 mm | - | - | - |
| 1777973987 | 19.44° C | 67% | 995.6 hPa | 0 mm | - | - | - |
| 1777973807 | 19.44° C | 67% | 995.6 hPa | 0 mm | - | - | - |
| 1777973627 | 20° C | 68% | 995.6 hPa | 0 mm | - | - | - |
| 1777973447 | 19.44° C | 68% | 995.6 hPa | 0 mm | - | - | - |
| 1777973088 | 19.44° C | 67% | 995.8 hPa | 0 mm | - | - | - |
| 1777972907 | 19.44° C | 67% | 995.8 hPa | 0 mm | - | - | - |
| 1777972728 | 19.44° C | 67% | 995.8 hPa | 0 mm | - | - | - |
| 1777972548 | 18.89° C | 67% | 995.8 hPa | 0 mm | - | - | - |
| 1777972367 | 18.89° C | 68% | 995.8 hPa | 0 mm | - | - | - |
* Rain latest hour (hover to see other rain measurements)
** Current wind speed in m/s (hover to see current wind gust speed)